createdAt,value
2018-12-14T00:01:48.396Z,7.90
2018-12-14T00:04:17.434Z,7.90
2018-12-14T00:06:46.447Z,8.00
2018-12-14T00:09:15.573Z,8.00
2018-12-14T00:11:45.619Z,8.00
2018-12-14T00:14:15.062Z,7.90
2018-12-14T00:16:44.168Z,7.80
2018-12-14T00:19:13.277Z,7.70
2018-12-14T00:21:42.452Z,7.50
2018-12-14T00:24:11.619Z,7.80
2018-12-14T00:26:40.663Z,7.60
2018-12-14T00:29:09.863Z,7.50
2018-12-14T00:31:39.047Z,7.80
2018-12-14T00:34:08.109Z,7.80
2018-12-14T00:36:37.251Z,6.30
2018-12-14T00:39:07.507Z,6.60
2018-12-14T00:41:36.672Z,6.60
2018-12-14T00:44:05.924Z,5.40
2018-12-14T00:46:37.190Z,5.60
2018-12-14T00:49:06.360Z,5.50
2018-12-14T00:51:35.483Z,5.90
2018-12-14T00:54:04.752Z,6.20
2018-12-14T00:56:33.773Z,5.90
2018-12-14T00:59:02.936Z,6.10
2018-12-14T01:01:32.091Z,6.30
2018-12-14T01:04:02.013Z,6.20
2018-12-14T01:06:31.111Z,6.50
2018-12-14T01:09:00.140Z,6.90
2018-12-14T01:11:29.172Z,6.10
2018-12-14T01:13:58.432Z,6.70
2018-12-14T01:16:27.579Z,7.40
2018-12-14T01:18:56.689Z,7.00
2018-12-14T01:21:25.756Z,6.60
2018-12-14T01:23:55.271Z,5.50
2018-12-14T01:26:24.511Z,5.80
2018-12-14T01:28:53.499Z,6.40
2018-12-14T01:31:22.503Z,6.80
2018-12-14T01:33:51.647Z,6.40
2018-12-14T01:36:20.795Z,6.20
2018-12-14T01:38:49.816Z,6.10
2018-12-14T01:41:18.979Z,6.60
2018-12-14T01:43:48.131Z,5.80
2018-12-14T01:46:17.439Z,6.10
2018-12-14T01:48:46.615Z,6.00
2018-12-14T01:51:15.835Z,6.10
2018-12-14T01:53:45.132Z,6.80
2018-12-14T01:56:14.173Z,6.80
2018-12-14T01:58:43.503Z,5.40
2018-12-14T02:01:12.769Z,6.30
2018-12-14T02:03:41.915Z,6.00
2018-12-14T02:06:11.167Z,5.80
2018-12-14T02:08:40.295Z,6.00
2018-12-14T02:11:09.429Z,5.30
2018-12-14T02:13:38.739Z,6.00
2018-12-14T02:16:07.757Z,6.30
2018-12-14T02:18:36.744Z,5.60
2018-12-14T02:21:06.539Z,5.60
2018-12-14T02:23:35.572Z,5.70
2018-12-14T02:26:04.732Z,6.00
2018-12-14T02:28:33.879Z,5.00
2018-12-14T02:31:03.072Z,5.00
2018-12-14T02:33:32.159Z,5.40
2018-12-14T02:36:01.743Z,6.10
2018-12-14T02:38:30.972Z,4.80
2018-12-14T02:41:00.134Z,4.70
2018-12-14T02:43:29.413Z,5.60
2018-12-14T02:45:58.424Z,6.30
2018-12-14T02:48:27.421Z,6.00
2018-12-14T02:50:56.548Z,5.60
2018-12-14T02:53:25.723Z,5.20
2018-12-14T02:58:44.267Z,5.80
2018-12-14T03:01:13.532Z,6.00
2018-12-14T03:03:42.805Z,5.60
2018-12-14T03:06:12.212Z,5.70
2018-12-14T03:08:41.263Z,4.90
2018-12-14T03:11:10.411Z,5.30
2018-12-14T03:13:39.564Z,5.50
2018-12-14T03:16:08.912Z,5.60
2018-12-14T03:18:38.007Z,6.10
2018-12-14T03:21:07.518Z,6.30
2018-12-14T03:23:36.757Z,6.40
2018-12-14T03:26:06.232Z,6.20
2018-12-14T03:28:35.244Z,6.00
2018-12-14T03:31:04.277Z,5.80
2018-12-14T03:33:33.457Z,5.70
2018-12-14T03:36:02.751Z,5.20
2018-12-14T03:38:31.997Z,5.80
2018-12-14T03:41:01.181Z,6.10
2018-12-14T03:43:30.235Z,6.40
2018-12-14T03:45:59.382Z,5.60
2018-12-14T03:48:28.424Z,5.70
2018-12-14T03:50:57.656Z,5.90
2018-12-14T03:53:26.822Z,5.40
2018-12-14T03:55:56.059Z,5.40
2018-12-14T03:58:25.105Z,5.40
2018-12-14T04:00:54.171Z,6.30
2018-12-14T04:03:23.295Z,6.80
2018-12-14T04:05:52.536Z,6.80
2018-12-14T04:08:21.591Z,6.50
2018-12-14T04:10:50.581Z,6.50
2018-12-14T04:13:19.716Z,6.10
2018-12-14T04:15:48.879Z,6.70
2018-12-14T04:18:18.214Z,7.10
2018-12-14T04:20:47.375Z,6.80
2018-12-14T04:23:16.515Z,6.80
2018-12-14T04:25:45.692Z,7.20
2018-12-14T04:28:14.796Z,6.80
2018-12-14T04:30:43.854Z,7.10
2018-12-14T04:33:13.349Z,7.60
2018-12-14T04:35:42.465Z,7.20
2018-12-14T04:38:11.487Z,7.30
2018-12-14T04:40:40.537Z,7.50
2018-12-14T04:43:09.699Z,7.70
2018-12-14T04:45:38.833Z,7.60
2018-12-14T04:48:08.071Z,7.00
2018-12-14T04:50:37.333Z,7.00
2018-12-14T04:53:07.273Z,7.10
2018-12-14T04:55:36.491Z,7.30
2018-12-14T04:58:05.667Z,7.30
2018-12-14T05:00:35.063Z,7.50
2018-12-14T05:03:04.392Z,7.10
2018-12-14T05:05:33.701Z,7.10
2018-12-14T05:08:02.868Z,6.90
2018-12-14T05:10:32.035Z,6.70
2018-12-14T05:13:01.177Z,6.40
2018-12-14T05:15:30.332Z,7.10
2018-12-14T05:17:59.572Z,7.50
2018-12-14T05:20:28.741Z,7.40
2018-12-14T05:22:57.999Z,7.20
2018-12-14T05:25:27.124Z,7.10
2018-12-14T05:27:56.527Z,6.60
2018-12-14T05:30:25.980Z,6.90
2018-12-14T05:32:55.762Z,7.10
2018-12-14T05:35:24.979Z,6.60
2018-12-14T05:37:54.140Z,6.90
2018-12-14T05:40:23.455Z,7.00
2018-12-14T05:42:52.882Z,6.90
2018-12-14T05:45:22.079Z,6.60
2018-12-14T05:47:51.484Z,6.50
2018-12-14T05:50:20.768Z,6.10
2018-12-14T05:52:49.918Z,6.70
2018-12-14T05:55:18.960Z,6.70
2018-12-14T05:57:48.167Z,6.70
2018-12-14T06:00:17.606Z,7.10
2018-12-14T06:02:46.661Z,7.40
2018-12-14T06:05:15.823Z,7.80
2018-12-14T06:07:44.904Z,7.80
2018-12-14T06:10:14.141Z,7.60
2018-12-14T06:12:43.995Z,7.80
2018-12-14T06:15:13.040Z,7.50
2018-12-14T06:17:42.092Z,7.40
2018-12-14T06:20:11.352Z,7.20
2018-12-14T06:22:41.049Z,7.50
2018-12-14T06:25:10.257Z,7.70
2018-12-14T06:27:39.359Z,7.50
2018-12-14T06:30:09.061Z,7.00
2018-12-14T06:32:38.212Z,7.10
2018-12-14T06:35:07.457Z,7.60
2018-12-14T06:37:36.554Z,7.40
2018-12-14T06:40:06.225Z,7.50
2018-12-14T06:42:35.201Z,7.90
2018-12-14T06:45:04.609Z,7.60
2018-12-14T06:47:33.749Z,6.60
2018-12-14T06:50:02.787Z,7.20
2018-12-14T06:52:32.037Z,7.60
2018-12-14T06:55:01.318Z,7.70
2018-12-14T06:57:30.486Z,6.90
2018-12-14T07:00:00.170Z,6.60
2018-12-14T07:02:29.324Z,7.20
2018-12-14T07:04:58.379Z,6.70
2018-12-14T07:07:27.869Z,7.00
2018-12-14T07:09:57.149Z,7.40
2018-12-14T07:12:26.315Z,7.80
2018-12-14T07:14:55.551Z,7.60
2018-12-14T07:17:24.608Z,7.00
2018-12-14T07:19:53.787Z,6.40
2018-12-14T07:22:22.924Z,6.70
2018-12-14T07:24:52.975Z,7.00
2018-12-14T07:27:22.132Z,7.30
2018-12-14T07:29:51.396Z,7.30
2018-12-14T07:32:20.719Z,7.80
2018-12-14T07:34:50.036Z,7.80
2018-12-14T07:37:19.103Z,7.90
2018-12-14T07:39:48.428Z,7.40
2018-12-14T07:42:17.495Z,7.70
2018-12-14T07:44:46.847Z,8.10
2018-12-14T07:47:16.300Z,8.20
2018-12-14T07:49:45.336Z,8.10
2018-12-14T07:52:14.596Z,8.30
2018-12-14T07:54:43.813Z,8.50
2018-12-14T07:57:13.004Z,8.40
2018-12-14T07:59:42.255Z,7.70
2018-12-14T08:02:11.294Z,7.50
2018-12-14T08:04:40.803Z,7.40
2018-12-14T08:07:10.345Z,7.60
2018-12-14T08:09:39.568Z,7.70
2018-12-14T08:12:08.788Z,7.20
2018-12-14T08:14:38.003Z,7.50
2018-12-14T08:17:07.208Z,7.50
2018-12-14T08:19:37.322Z,8.00
2018-12-14T08:22:06.468Z,7.40
2018-12-14T08:24:35.611Z,7.30
2018-12-14T08:27:05.014Z,8.00
2018-12-14T08:29:34.188Z,8.30
2018-12-14T08:32:03.702Z,8.30
2018-12-14T08:34:32.911Z,8.20
2018-12-14T08:37:01.953Z,8.50
2018-12-14T08:39:31.103Z,8.40
2018-12-14T08:42:00.136Z,8.20
2018-12-14T08:44:29.169Z,7.90
2018-12-14T08:46:58.230Z,8.30
2018-12-14T08:49:27.239Z,8.00
2018-12-14T08:51:56.523Z,8.20
2018-12-14T08:54:25.656Z,7.90
2018-12-14T08:56:55.001Z,7.90
2018-12-14T08:59:24.180Z,7.80
2018-12-14T09:01:53.229Z,8.20
2018-12-14T09:04:22.464Z,8.30
2018-12-14T09:06:51.732Z,8.10
2018-12-14T09:09:21.289Z,8.10
2018-12-14T09:11:50.573Z,8.30
2018-12-14T09:14:19.760Z,8.10
2018-12-14T09:16:49.075Z,8.10
2018-12-14T09:19:18.689Z,7.70
2018-12-14T09:21:47.877Z,7.70
2018-12-14T09:24:17.068Z,7.80
2018-12-14T09:26:47.043Z,7.90
2018-12-14T09:29:16.208Z,8.10
2018-12-14T09:31:45.900Z,7.90
2018-12-14T09:34:14.947Z,7.80
2018-12-14T09:36:44.515Z,7.50
2018-12-14T09:39:13.627Z,7.60
2018-12-14T09:41:42.691Z,7.20
2018-12-14T09:44:12.187Z,7.30
2018-12-14T09:46:41.336Z,7.50
2018-12-14T09:49:10.331Z,7.60
2018-12-14T09:51:39.680Z,6.80
2018-12-14T09:54:08.828Z,6.50
2018-12-14T09:56:38.175Z,7.10
2018-12-14T09:59:07.472Z,7.30
2018-12-14T10:01:37.360Z,6.60
2018-12-14T10:04:06.535Z,7.20
2018-12-14T10:06:35.675Z,7.80
2018-12-14T10:09:05.739Z,8.30
2018-12-14T10:11:35.096Z,7.60
2018-12-14T10:14:04.356Z,8.00
2018-12-14T10:16:33.595Z,7.00
2018-12-14T10:19:03.095Z,6.80
2018-12-14T10:21:32.201Z,7.00
2018-12-14T10:24:02.488Z,7.60
2018-12-14T10:26:31.812Z,8.20
2018-12-14T10:29:01.196Z,7.20
2018-12-14T10:31:30.408Z,6.80
2018-12-14T10:33:59.448Z,6.20
2018-12-14T10:36:28.608Z,6.60
2018-12-14T10:38:57.799Z,6.60
2018-12-14T10:41:26.793Z,7.00
2018-12-14T10:43:55.855Z,7.00
2018-12-14T10:46:25.027Z,6.30
2018-12-14T10:48:54.156Z,6.10
2018-12-14T10:51:23.384Z,5.80
2018-12-14T10:53:52.691Z,6.50
2018-12-14T10:56:21.761Z,6.90
2018-12-14T10:58:50.936Z,7.40
2018-12-14T11:02:23.688Z,7.40
2018-12-14T11:04:52.938Z,7.50
2018-12-14T11:07:22.040Z,6.40
2018-12-14T11:09:51.266Z,6.00
2018-12-14T11:12:20.422Z,6.50
2018-12-14T11:14:49.743Z,6.80
2018-12-14T11:17:19.158Z,6.80
2018-12-14T11:19:48.396Z,6.90
2018-12-14T11:22:17.524Z,7.50
2018-12-14T11:24:46.584Z,7.70
2018-12-14T11:27:15.711Z,7.00
2018-12-14T11:29:44.792Z,7.50
2018-12-14T11:32:13.965Z,7.80
2018-12-14T11:34:42.991Z,6.90
2018-12-14T11:37:12.166Z,6.00
2018-12-14T11:39:41.688Z,6.50
2018-12-14T11:42:11.169Z,7.60
2018-12-14T11:44:40.416Z,7.10
2018-12-14T11:47:09.881Z,7.80
2018-12-14T11:49:38.912Z,8.30
2018-12-14T11:52:07.973Z,8.40
2018-12-14T11:54:37.603Z,7.70
2018-12-14T11:57:06.827Z,7.70
2018-12-14T11:59:35.896Z,7.80
2018-12-14T12:02:05.271Z,7.10
2018-12-14T12:04:34.380Z,7.70
2018-12-14T12:07:03.703Z,8.10
2018-12-14T12:09:33.452Z,7.40
2018-12-14T12:12:03.371Z,6.30
2018-12-14T12:14:33.284Z,6.80
2018-12-14T12:17:02.384Z,7.60
2018-12-14T12:19:31.411Z,7.60
2018-12-14T12:22:01.444Z,7.70
2018-12-14T12:24:30.742Z,7.10
2018-12-14T12:26:59.894Z,7.60
2018-12-14T12:29:29.026Z,6.30
2018-12-14T12:31:58.248Z,6.40
2018-12-14T12:34:27.516Z,6.00
2018-12-14T12:36:56.731Z,6.30
2018-12-14T12:39:25.914Z,6.10
2018-12-14T12:41:55.207Z,6.40
2018-12-14T12:44:24.432Z,6.90
2018-12-14T12:46:53.908Z,6.60
2018-12-14T12:49:23.043Z,7.10
2018-12-14T12:51:52.620Z,6.80
2018-12-14T12:54:22.044Z,7.00
2018-12-14T12:56:51.380Z,7.00
2018-12-14T12:59:20.964Z,7.30
2018-12-14T13:01:50.335Z,7.50
2018-12-14T13:04:19.560Z,7.00
2018-12-14T13:06:48.721Z,6.00
2018-12-14T13:09:17.912Z,6.30
2018-12-14T13:11:47.222Z,6.10
2018-12-14T13:14:16.552Z,6.70
2018-12-14T13:16:46.287Z,7.00
2018-12-14T13:19:15.547Z,6.30
2018-12-14T13:21:44.644Z,6.60
2018-12-14T13:24:13.812Z,7.30
2018-12-14T13:26:43.518Z,7.50
2018-12-14T13:29:13.259Z,6.40
2018-12-14T13:31:42.449Z,6.60
2018-12-14T13:34:11.597Z,7.20
2018-12-14T13:36:41.339Z,6.30
2018-12-14T13:39:10.669Z,6.80
2018-12-14T13:41:39.868Z,6.70
2018-12-14T13:44:09.708Z,7.30
2018-12-14T13:46:38.976Z,7.30
2018-12-14T13:49:08.133Z,6.90
2018-12-14T13:51:37.236Z,6.50
2018-12-14T13:54:07.283Z,6.70
2018-12-14T13:56:36.578Z,6.60
2018-12-14T13:59:06.257Z,6.80
2018-12-14T14:01:35.460Z,6.90
2018-12-14T14:04:04.675Z,7.10
2018-12-14T14:06:33.972Z,6.60
2018-12-14T14:09:05.183Z,7.80
2018-12-14T14:11:34.705Z,7.60
2018-12-14T14:14:03.770Z,7.30
2018-12-14T14:16:33.059Z,6.80
2018-12-14T14:19:02.280Z,6.10
2018-12-14T14:21:31.617Z,5.60
2018-12-14T14:24:01.547Z,5.80
2018-12-14T14:26:30.712Z,6.50
2018-12-14T14:28:59.867Z,6.30
2018-12-14T14:31:28.722Z,5.90
2018-12-14T14:33:57.597Z,5.90
2018-12-14T14:36:26.773Z,5.70
2018-12-14T14:38:55.630Z,5.50
2018-12-14T14:41:24.511Z,5.20
2018-12-14T14:43:53.572Z,5.20
2018-12-14T14:46:22.749Z,5.30
2018-12-14T14:48:52.036Z,5.90
2018-12-14T14:51:21.519Z,5.40
2018-12-14T14:53:50.531Z,5.40
2018-12-14T14:56:19.632Z,6.00
2018-12-14T14:58:48.739Z,5.70
2018-12-14T15:01:17.977Z,6.00
2018-12-14T15:03:47.773Z,6.30
2018-12-14T15:06:16.928Z,5.50
2018-12-14T15:08:46.276Z,4.50
2018-12-14T15:11:15.576Z,5.10
2018-12-14T15:13:44.753Z,5.90
2018-12-14T15:16:14.768Z,5.40
2018-12-14T15:18:43.864Z,5.10
2018-12-14T15:21:13.640Z,5.20
2018-12-14T15:23:42.793Z,5.20
2018-12-14T15:26:11.947Z,5.30
2018-12-14T15:28:41.073Z,5.50
2018-12-14T15:31:10.656Z,5.80
2018-12-14T15:33:39.787Z,6.00
2018-12-14T15:36:09.049Z,6.50
2018-12-14T15:38:38.292Z,6.90
2018-12-14T15:41:07.329Z,6.70
2018-12-14T15:43:36.459Z,6.70
2018-12-14T15:46:05.619Z,6.60
2018-12-14T15:48:34.742Z,6.40
2018-12-14T15:51:03.960Z,6.70
2018-12-14T15:53:33.151Z,6.60
2018-12-14T15:56:02.407Z,6.70
2018-12-14T15:58:31.751Z,5.90
2018-12-14T16:01:01.056Z,6.30
2018-12-14T16:03:30.436Z,7.30
2018-12-14T16:05:59.799Z,7.30
2018-12-14T16:08:28.914Z,7.50
2018-12-14T16:10:58.051Z,7.60
2018-12-14T16:13:27.168Z,7.70
2018-12-14T16:15:57.045Z,7.80
2018-12-14T16:18:26.106Z,8.00
2018-12-14T16:20:55.141Z,8.30
2018-12-14T16:23:24.184Z,8.10
2018-12-14T16:25:53.427Z,7.80
2018-12-14T16:28:22.593Z,8.10
2018-12-14T16:30:51.713Z,8.30
2018-12-14T16:33:20.780Z,7.90
2018-12-14T16:35:50.431Z,7.50
2018-12-14T16:38:19.579Z,7.40
2018-12-14T16:40:49.215Z,7.40
2018-12-14T16:43:18.540Z,8.00
2018-12-14T16:45:47.881Z,8.00
2018-12-14T16:48:17.093Z,8.30
2018-12-14T16:50:46.587Z,7.80
2018-12-14T16:53:15.692Z,7.30
2018-12-14T16:55:44.925Z,7.60
2018-12-14T16:58:13.969Z,8.10
2018-12-14T17:00:43.224Z,8.00
2018-12-14T17:03:13.035Z,8.20
2018-12-14T17:05:42.227Z,8.50
2018-12-14T17:08:12.000Z,8.70
2018-12-14T17:10:41.433Z,8.70
2018-12-14T17:13:10.483Z,8.10
2018-12-14T17:15:39.615Z,8.40
2018-12-14T17:18:08.679Z,8.50
2018-12-14T17:20:37.917Z,8.40
2018-12-14T17:23:06.972Z,8.20
2018-12-14T17:25:36.324Z,8.30
2018-12-14T17:28:05.578Z,8.60
2018-12-14T17:30:34.722Z,8.70
2018-12-14T17:33:04.077Z,8.80
2018-12-14T17:35:33.403Z,8.80
2018-12-14T17:38:02.531Z,8.90
2018-12-14T17:40:31.714Z,8.70
2018-12-14T17:43:01.761Z,8.90
2018-12-14T17:45:31.232Z,9.00
2018-12-14T17:48:00.735Z,9.10
2018-12-14T17:50:30.116Z,9.20
2018-12-14T17:53:00.003Z,8.90
2018-12-14T17:55:29.208Z,9.00
2018-12-14T17:57:58.553Z,8.80
2018-12-14T18:00:27.911Z,8.80
2018-12-14T18:02:57.030Z,8.70
2018-12-14T18:05:26.344Z,8.50
2018-12-14T18:07:55.519Z,8.60
2018-12-14T18:10:24.637Z,8.50
2018-12-14T18:12:54.702Z,8.50
2018-12-14T18:15:23.789Z,8.40
2018-12-14T18:17:52.826Z,8.80
2018-12-14T18:20:21.881Z,8.90
2018-12-14T18:22:51.273Z,8.90
2018-12-14T18:25:20.836Z,9.00
2018-12-14T18:27:50.249Z,9.00
2018-12-14T18:30:19.819Z,8.70
2018-12-14T18:32:49.035Z,7.70
2018-12-14T18:35:18.085Z,8.00
2018-12-14T18:37:47.072Z,8.20
2018-12-14T18:40:16.064Z,8.10
2018-12-14T18:42:45.220Z,8.00
2018-12-14T18:45:14.375Z,8.00
2018-12-14T18:47:43.808Z,8.40
2018-12-14T18:50:12.901Z,8.70
2018-12-14T18:52:42.167Z,8.80
2018-12-14T18:55:11.519Z,8.60
2018-12-14T18:57:40.819Z,8.60
2018-12-14T19:00:11.228Z,7.70
2018-12-14T19:02:40.501Z,7.80
2018-12-14T19:05:09.620Z,8.20
2018-12-14T19:07:38.679Z,8.60
2018-12-14T19:10:08.140Z,8.40
2018-12-14T19:12:37.436Z,8.40
2018-12-14T19:15:07.145Z,8.60
2018-12-14T19:17:36.731Z,8.90
2018-12-14T19:20:06.888Z,9.10
2018-12-14T19:22:36.847Z,8.70
2018-12-14T19:25:06.904Z,8.40
2018-12-14T19:27:36.308Z,8.60
2018-12-14T19:30:06.285Z,8.80
2018-12-14T19:32:35.737Z,8.90
2018-12-14T19:35:05.537Z,8.90
2018-12-14T19:37:35.019Z,8.90
2018-12-14T19:40:04.932Z,8.90
2018-12-14T19:42:34.460Z,9.00
2018-12-14T19:45:04.147Z,9.00
2018-12-14T19:47:33.446Z,8.90
2018-12-14T19:50:02.764Z,9.00
2018-12-14T19:52:31.913Z,9.10
2018-12-14T19:55:01.164Z,9.30
2018-12-14T19:57:30.568Z,9.20
2018-12-14T20:00:00.384Z,9.20
2018-12-14T20:02:29.684Z,9.20
2018-12-14T20:04:58.884Z,9.30
2018-12-14T20:07:28.137Z,9.20
2018-12-14T20:09:57.228Z,9.10
2018-12-14T20:12:26.536Z,9.20
2018-12-14T20:14:55.761Z,9.00
2018-12-14T20:17:24.924Z,8.30
2018-12-14T20:19:54.057Z,7.60
2018-12-14T20:22:23.313Z,6.40
2018-12-14T20:24:52.556Z,7.20
2018-12-14T20:27:22.807Z,7.90
2018-12-14T20:29:52.177Z,8.50
2018-12-14T20:32:21.328Z,8.60
2018-12-14T20:34:50.424Z,8.50
2018-12-14T20:37:19.648Z,8.20
2018-12-14T20:39:48.715Z,8.50
2018-12-14T20:42:17.957Z,8.60
2018-12-14T20:44:47.119Z,8.50
2018-12-14T20:47:16.371Z,7.90
2018-12-14T20:49:45.362Z,8.20
2018-12-14T20:52:14.426Z,8.40
2018-12-14T20:54:43.853Z,7.40
2018-12-14T20:57:13.040Z,7.40
2018-12-14T20:59:42.120Z,7.40
2018-12-14T21:02:11.773Z,7.50
2018-12-14T21:04:41.023Z,6.80
2018-12-14T21:07:10.247Z,7.10
2018-12-14T21:09:39.638Z,7.70
2018-12-14T21:12:08.835Z,7.80
2018-12-14T21:14:38.351Z,7.70
2018-12-14T21:17:07.656Z,8.30
2018-12-14T21:19:36.809Z,8.30
2018-12-14T21:22:12.192Z,7.50
2018-12-14T21:24:41.372Z,7.90
2018-12-14T21:27:10.593Z,7.70
2018-12-14T21:29:39.736Z,8.00
2018-12-14T21:32:08.867Z,7.90
2018-12-14T21:34:38.010Z,8.10
2018-12-14T21:37:07.151Z,8.60
2018-12-14T21:39:36.333Z,8.30
2018-12-14T21:42:05.664Z,8.30
2018-12-14T21:44:34.712Z,8.00
2018-12-14T21:47:04.166Z,8.00
2018-12-14T21:49:33.723Z,8.20
2018-12-14T21:52:02.965Z,7.80
2018-12-14T21:54:32.273Z,6.90
2018-12-14T21:57:01.773Z,6.30
2018-12-14T21:59:31.082Z,6.90
2018-12-14T22:02:00.258Z,7.60
2018-12-14T22:04:31.114Z,7.20
2018-12-14T22:07:00.919Z,7.80
2018-12-14T22:09:29.979Z,8.00
2018-12-14T22:11:59.161Z,7.60
2018-12-14T22:14:28.408Z,7.40
2018-12-14T22:16:57.771Z,7.70
2018-12-14T22:19:26.996Z,7.60
2018-12-14T22:21:56.317Z,8.00
2018-12-14T22:24:25.491Z,8.00
2018-12-14T22:26:54.571Z,8.20
2018-12-14T22:29:23.795Z,8.20
2018-12-14T22:31:52.889Z,8.30
2018-12-14T22:34:22.184Z,7.90
2018-12-14T22:36:52.411Z,7.80
2018-12-14T22:39:22.163Z,7.80
2018-12-14T22:41:51.215Z,7.70
2018-12-14T22:44:21.540Z,7.50
2018-12-14T22:46:50.781Z,8.00
2018-12-14T22:49:19.941Z,7.90
2018-12-14T22:51:49.704Z,7.90
2018-12-14T22:54:18.721Z,8.10
2018-12-14T22:56:48.221Z,8.50
2018-12-14T22:59:17.414Z,8.60
2018-12-14T23:01:46.633Z,8.80
2018-12-14T23:04:15.709Z,8.90
2018-12-14T23:06:44.975Z,9.00
2018-12-14T23:09:13.999Z,9.10
2018-12-14T23:11:43.045Z,9.10
2018-12-14T23:14:12.088Z,8.90
2018-12-14T23:16:41.491Z,8.90
2018-12-14T23:19:10.612Z,9.00
2018-12-14T23:21:39.803Z,8.90
2018-12-14T23:24:08.835Z,9.10
2018-12-14T23:26:37.971Z,9.20
2018-12-14T23:29:07.499Z,9.30
2018-12-14T23:31:43.023Z,8.90
2018-12-14T23:34:12.085Z,9.10
2018-12-14T23:36:41.331Z,9.10
2018-12-14T23:39:10.532Z,9.10
2018-12-14T23:41:39.717Z,9.20
2018-12-14T23:44:08.968Z,9.00
2018-12-14T23:46:38.103Z,9.20
2018-12-14T23:49:07.163Z,9.30
2018-12-14T23:51:36.501Z,9.30
2018-12-14T23:54:05.668Z,9.20
2018-12-14T23:56:34.692Z,9.20
2018-12-14T23:59:03.855Z,9.10
